createdAt,value
2019-03-19T00:01:36.617Z,5.12
2019-03-19T00:04:04.060Z,5.03
2019-03-19T00:06:31.671Z,6.40
2019-03-19T00:08:59.826Z,6.08
2019-03-19T00:11:29.282Z,5.95
2019-03-19T00:13:57.211Z,4.80
2019-03-19T00:16:24.887Z,5.37
2019-03-19T00:18:52.609Z,6.03
2019-03-19T00:21:32.479Z,5.90
2019-03-19T00:24:00.457Z,7.35
2019-03-19T00:26:29.712Z,5.90
2019-03-19T00:28:57.293Z,7.05
2019-03-19T00:31:24.552Z,6.75
2019-03-19T00:33:52.156Z,6.92
2019-03-19T00:36:19.911Z,8.23
2019-03-19T00:38:47.197Z,8.08
2019-03-19T00:41:15.265Z,9.00
2019-03-19T00:43:42.780Z,8.38
2019-03-19T00:46:10.695Z,8.45
2019-03-19T00:48:38.704Z,8.50
2019-03-19T00:51:06.507Z,8.25
2019-03-19T00:53:35.779Z,9.75
2019-03-19T00:56:03.479Z,9.05
2019-03-19T00:58:30.717Z,8.23
2019-03-19T01:00:58.337Z,8.95
2019-03-19T01:03:25.923Z,9.33
2019-03-19T01:05:53.187Z,9.35
2019-03-19T01:08:20.753Z,9.18
2019-03-19T01:10:49.103Z,9.88
2019-03-19T01:13:16.771Z,11.18
2019-03-19T01:15:44.337Z,12.90
2019-03-19T01:18:11.782Z,11.38
2019-03-19T01:20:39.882Z,12.93
2019-03-19T01:23:07.793Z,12.73
2019-03-19T01:25:35.280Z,13.50
2019-03-19T01:28:02.637Z,13.00
2019-03-19T01:30:30.282Z,12.55
2019-03-19T01:32:59.039Z,13.25
2019-03-19T01:35:28.861Z,14.43
2019-03-19T01:37:56.251Z,10.97
2019-03-19T01:40:23.867Z,11.18
2019-03-19T01:42:51.276Z,11.38
2019-03-19T01:45:19.266Z,11.18
2019-03-19T01:47:46.512Z,11.00
2019-03-19T01:50:14.186Z,10.35
2019-03-19T01:52:41.445Z,9.95
2019-03-19T01:55:09.141Z,13.35
2019-03-19T01:57:37.037Z,11.97
2019-03-19T02:00:05.335Z,11.10
2019-03-19T02:02:32.646Z,13.80
2019-03-19T02:05:00.507Z,10.55
2019-03-19T02:07:28.177Z,11.28
2019-03-19T02:09:55.775Z,13.48
2019-03-19T02:12:23.597Z,10.98
2019-03-19T02:14:51.521Z,12.47
2019-03-19T02:17:19.222Z,11.25
2019-03-19T02:19:46.929Z,11.12
2019-03-19T02:22:14.456Z,11.75
2019-03-19T02:24:41.746Z,13.60
2019-03-19T02:27:09.920Z,12.40
2019-03-19T02:29:37.377Z,14.15
2019-03-19T02:32:04.886Z,15.03
2019-03-19T02:34:33.589Z,16.87
2019-03-19T02:37:00.880Z,15.10
2019-03-19T02:39:28.221Z,14.95
2019-03-19T02:41:56.200Z,15.28
2019-03-19T02:44:23.711Z,15.00
2019-03-19T02:46:51.528Z,15.00
2019-03-19T02:49:19.135Z,15.75
2019-03-19T02:51:46.797Z,16.73
2019-03-19T02:54:15.305Z,15.18
2019-03-19T02:56:43.442Z,15.43
2019-03-19T02:59:11.691Z,16.32
2019-03-19T03:01:39.395Z,16.82
2019-03-19T03:04:07.078Z,20.02
2019-03-19T03:06:35.409Z,20.68
2019-03-19T03:09:06.280Z,20.30
2019-03-19T03:11:34.032Z,20.35
2019-03-19T03:14:01.471Z,18.98
2019-03-19T03:16:28.749Z,21.10
2019-03-19T03:18:56.492Z,19.60
2019-03-19T03:21:23.769Z,19.70
2019-03-19T03:23:51.526Z,19.30
2019-03-19T03:26:19.552Z,18.30
2019-03-19T03:28:46.858Z,17.60
2019-03-19T03:31:14.974Z,17.62
2019-03-19T03:33:42.670Z,18.52
2019-03-19T03:36:10.598Z,19.75
2019-03-19T03:38:38.134Z,19.55
2019-03-19T03:41:05.734Z,20.95
2019-03-19T03:43:33.437Z,20.97
2019-03-19T03:46:01.179Z,21.93
2019-03-19T03:48:29.244Z,21.70
2019-03-19T03:50:56.911Z,20.17
2019-03-19T03:53:24.606Z,20.77
2019-03-19T03:55:52.144Z,19.55
2019-03-19T03:58:20.664Z,20.60
2019-03-19T04:00:47.956Z,20.80
2019-03-19T04:03:15.688Z,21.10
2019-03-19T04:05:43.198Z,22.15
2019-03-19T04:08:12.258Z,19.67
2019-03-19T04:10:39.905Z,19.37
2019-03-19T04:13:08.018Z,19.60
2019-03-19T04:15:36.661Z,20.05
2019-03-19T04:18:04.171Z,19.62
2019-03-19T04:20:33.320Z,20.40
2019-03-19T04:23:01.646Z,20.97
2019-03-19T04:25:29.222Z,18.65
2019-03-19T04:27:57.416Z,18.60
2019-03-19T04:30:26.276Z,17.98
2019-03-19T04:32:53.968Z,17.98
2019-03-19T04:35:21.720Z,17.65
2019-03-19T04:37:49.802Z,16.95
2019-03-19T04:40:17.545Z,16.52
2019-03-19T04:42:44.797Z,16.15
2019-03-19T04:45:18.181Z,16.23
2019-03-19T04:47:45.727Z,17.35
2019-03-19T04:50:13.935Z,16.77
2019-03-19T04:52:41.643Z,15.72
2019-03-19T04:55:09.608Z,16.30
2019-03-19T04:57:37.219Z,16.55
2019-03-19T05:00:05.218Z,16.50
2019-03-19T05:02:32.626Z,16.85
2019-03-19T05:05:00.323Z,16.32
2019-03-19T05:07:28.434Z,16.73
2019-03-19T05:09:56.303Z,16.40
2019-03-19T05:12:23.539Z,15.48
2019-03-19T05:14:51.588Z,16.17
2019-03-19T05:17:19.096Z,15.58
2019-03-19T05:19:46.996Z,16.40
2019-03-19T05:22:14.243Z,16.82
2019-03-19T05:24:41.701Z,18.25
2019-03-19T05:27:09.329Z,18.23
2019-03-19T05:29:36.903Z,16.80
2019-03-19T05:32:04.829Z,17.10
2019-03-19T05:34:32.053Z,17.32
2019-03-19T05:36:59.802Z,18.05
2019-03-19T05:39:30.191Z,18.15
2019-03-19T05:41:57.588Z,18.02
2019-03-19T05:44:25.578Z,18.00
2019-03-19T05:46:53.157Z,17.35
2019-03-19T05:49:21.258Z,17.32
2019-03-19T05:51:48.806Z,17.80
2019-03-19T05:54:16.109Z,18.48
2019-03-19T05:56:43.633Z,19.48
2019-03-19T05:59:11.107Z,17.30
2019-03-19T06:01:39.142Z,16.75
2019-03-19T06:04:06.934Z,18.00
2019-03-19T06:06:34.950Z,17.67
2019-03-19T06:09:04.496Z,18.12
2019-03-19T06:11:32.710Z,17.20
2019-03-19T06:14:00.658Z,17.92
2019-03-19T06:16:28.625Z,16.73
2019-03-19T06:18:56.086Z,16.62
2019-03-19T06:21:24.066Z,15.90
2019-03-19T06:23:51.680Z,15.53
2019-03-19T06:26:19.131Z,16.57
2019-03-19T06:28:46.769Z,16.05
2019-03-19T06:31:14.465Z,15.93
2019-03-19T06:33:42.495Z,16.25
2019-03-19T06:36:10.089Z,16.57
2019-03-19T06:38:38.208Z,17.17
2019-03-19T06:41:06.251Z,19.10
2019-03-19T06:43:33.939Z,17.37
2019-03-19T06:46:01.481Z,16.75
2019-03-19T06:48:28.918Z,16.48
2019-03-19T06:50:56.525Z,15.50
2019-03-19T06:53:23.818Z,15.65
2019-03-19T06:55:51.728Z,16.45
2019-03-19T06:58:18.927Z,15.05
2019-03-19T07:00:46.827Z,15.08
2019-03-19T07:03:14.297Z,17.85
2019-03-19T07:05:41.832Z,14.73
2019-03-19T07:08:09.922Z,15.75
2019-03-19T07:10:37.584Z,15.35
2019-03-19T07:13:05.158Z,15.03
2019-03-19T07:15:33.441Z,15.60
2019-03-19T07:18:01.769Z,15.40
2019-03-19T07:20:29.089Z,15.75
2019-03-19T07:22:56.652Z,14.90
2019-03-19T07:25:24.267Z,14.60
2019-03-19T07:27:51.788Z,14.10
2019-03-19T07:30:19.686Z,14.33
2019-03-19T07:32:47.155Z,14.43
2019-03-19T07:35:14.934Z,13.80
2019-03-19T07:37:42.570Z,14.03
2019-03-19T07:40:10.950Z,13.60
2019-03-19T07:42:39.111Z,14.00
2019-03-19T07:45:09.040Z,12.28
2019-03-19T07:47:36.804Z,13.68
2019-03-19T07:50:05.589Z,14.33
2019-03-19T07:52:36.428Z,14.35
2019-03-19T07:55:05.187Z,14.73
2019-03-19T07:57:32.707Z,13.70
2019-03-19T08:00:00.650Z,14.33
2019-03-19T08:02:28.380Z,14.55
2019-03-19T08:04:55.856Z,13.70
2019-03-19T08:07:24.005Z,14.70
2019-03-19T08:09:52.112Z,14.55
2019-03-19T08:12:19.447Z,14.78
2019-03-19T08:14:47.225Z,14.47
2019-03-19T08:18:05.608Z,14.35
2019-03-19T08:20:33.103Z,13.95
2019-03-19T08:23:00.488Z,13.03
2019-03-19T08:25:27.728Z,12.28
2019-03-19T08:27:55.231Z,13.08
2019-03-19T08:30:24.525Z,12.80
2019-03-19T08:32:52.232Z,11.73
2019-03-19T08:35:20.402Z,12.73
2019-03-19T08:37:48.142Z,12.70
2019-03-19T08:40:15.879Z,14.25
2019-03-19T08:42:44.298Z,13.45
2019-03-19T08:45:12.133Z,12.47
2019-03-19T08:47:40.468Z,12.70
2019-03-19T08:50:10.599Z,13.13
2019-03-19T08:52:40.955Z,12.55
2019-03-19T08:55:08.567Z,12.88
2019-03-19T08:57:36.559Z,12.70
2019-03-19T09:00:06.233Z,11.75
2019-03-19T09:02:33.544Z,11.93
2019-03-19T09:05:03.101Z,13.10
2019-03-19T09:07:31.109Z,12.35
2019-03-19T09:09:59.274Z,12.13
2019-03-19T09:12:26.529Z,11.38
2019-03-19T09:14:53.891Z,11.30
2019-03-19T09:17:21.483Z,11.75
2019-03-19T09:19:51.463Z,11.45
2019-03-19T09:22:21.007Z,11.45
2019-03-19T09:24:48.252Z,12.43
2019-03-19T09:27:16.083Z,12.10
2019-03-19T09:29:44.036Z,12.00
2019-03-19T09:32:11.701Z,11.50
2019-03-19T09:34:39.540Z,11.22
2019-03-19T09:37:08.022Z,10.78
2019-03-19T09:39:35.730Z,10.75
2019-03-19T09:42:03.487Z,10.78
2019-03-19T09:44:30.999Z,9.68
2019-03-19T09:46:58.993Z,11.03
2019-03-19T09:49:26.658Z,9.60
2019-03-19T09:51:54.495Z,12.05
2019-03-19T09:54:21.978Z,11.43
2019-03-19T09:56:50.456Z,10.08
2019-03-19T09:59:26.761Z,9.78
2019-03-19T10:01:48.623Z,9.53
2019-03-19T10:04:16.593Z,10.15
2019-03-19T10:06:44.189Z,9.10
2019-03-19T10:09:11.839Z,10.20
2019-03-19T10:11:39.399Z,10.08
2019-03-19T10:14:08.815Z,7.55
2019-03-19T10:16:36.709Z,8.40
2019-03-19T10:19:04.301Z,8.80
2019-03-19T10:21:32.611Z,7.22
2019-03-19T10:24:00.150Z,7.72
2019-03-19T10:26:27.378Z,7.35
2019-03-19T10:28:55.079Z,7.45
2019-03-19T10:31:22.832Z,7.28
2019-03-19T10:33:50.413Z,6.90
2019-03-19T10:36:18.048Z,7.05
2019-03-19T10:38:45.506Z,6.53
2019-03-19T10:41:13.180Z,5.33
2019-03-19T10:43:41.118Z,5.15
2019-03-19T10:46:08.773Z,4.87
2019-03-19T10:48:36.495Z,6.20
2019-03-19T10:51:04.527Z,5.90
2019-03-19T10:53:32.544Z,4.40
2019-03-19T10:56:00.794Z,4.60
2019-03-19T10:58:30.377Z,4.28
2019-03-19T11:00:57.604Z,2.37
2019-03-19T11:03:25.245Z,3.02
2019-03-19T11:05:52.727Z,2.72
2019-03-19T11:08:20.910Z,2.90
2019-03-19T11:10:48.384Z,3.22
2019-03-19T11:13:15.830Z,3.72
2019-03-19T11:15:43.091Z,2.40
2019-03-19T11:18:10.748Z,2.40
2019-03-19T11:20:38.419Z,2.40
2019-03-19T11:23:06.150Z,2.67
2019-03-19T11:25:33.401Z,2.98
2019-03-19T11:28:00.996Z,2.75
2019-03-19T11:30:29.579Z,3.85
2019-03-19T11:32:57.125Z,3.15
2019-03-19T11:35:24.673Z,3.40
2019-03-19T11:37:52.366Z,3.22
2019-03-19T11:40:21.170Z,3.80
2019-03-19T11:42:49.560Z,3.90
2019-03-19T11:45:17.361Z,2.90
2019-03-19T11:47:45.973Z,3.27
2019-03-19T11:50:15.478Z,3.42
2019-03-19T11:52:43.081Z,2.90
2019-03-19T11:55:10.916Z,3.22
2019-03-19T11:57:38.460Z,3.33
2019-03-19T12:00:11.504Z,3.15
2019-03-19T12:02:38.396Z,3.42
2019-03-19T12:05:05.985Z,3.00
2019-03-19T12:07:33.623Z,3.27
2019-03-19T12:10:00.820Z,3.12
2019-03-19T12:12:28.329Z,3.17
2019-03-19T12:14:56.002Z,3.65
2019-03-19T12:17:23.653Z,3.20
2019-03-19T12:19:51.503Z,3.50
2019-03-19T12:22:21.698Z,2.70
2019-03-19T12:24:49.911Z,3.17
2019-03-19T12:27:17.548Z,2.90
2019-03-19T12:29:46.451Z,2.80
2019-03-19T12:32:13.803Z,2.90
2019-03-19T12:34:41.181Z,2.90
2019-03-19T12:37:09.101Z,2.90
2019-03-19T12:39:36.557Z,2.42
2019-03-19T12:42:03.896Z,2.02
2019-03-19T12:44:31.786Z,2.55
2019-03-19T12:46:59.628Z,2.42
2019-03-19T12:49:27.270Z,2.40
2019-03-19T12:51:58.579Z,2.25
2019-03-19T12:54:32.636Z,2.37
2019-03-19T12:57:00.336Z,2.75
2019-03-19T12:59:34.579Z,2.60
2019-03-19T13:02:18.482Z,2.85
2019-03-19T13:04:50.444Z,2.87
2019-03-19T13:07:23.407Z,3.05
2019-03-19T13:09:50.999Z,2.77
2019-03-19T13:12:49.903Z,3.12
2019-03-19T13:15:21.509Z,3.00
2019-03-19T13:17:50.027Z,3.02
2019-03-19T13:20:17.711Z,3.15
2019-03-19T13:22:57.930Z,3.02
2019-03-19T13:25:35.289Z,2.83
2019-03-19T13:28:04.801Z,2.70
2019-03-19T13:30:44.429Z,2.05
2019-03-19T13:33:03.576Z,2.17
2019-03-19T13:35:30.906Z,2.33
2019-03-19T13:37:59.426Z,2.75
2019-03-19T13:40:27.066Z,2.50
2019-03-19T13:42:54.658Z,3.40
2019-03-19T13:45:22.249Z,3.37
2019-03-19T13:47:50.660Z,3.70
2019-03-19T13:50:19.615Z,3.37
2019-03-19T13:52:48.109Z,2.67
2019-03-19T13:55:15.954Z,3.27
2019-03-19T13:57:43.349Z,3.08
2019-03-19T14:00:11.755Z,2.45
2019-03-19T14:02:39.492Z,3.02
2019-03-19T14:05:07.985Z,2.70
2019-03-19T14:07:36.225Z,2.85
2019-03-19T14:10:04.748Z,2.60
2019-03-19T14:12:32.325Z,2.98
2019-03-19T14:15:00.669Z,3.15
2019-03-19T14:17:30.064Z,2.92
2019-03-19T14:19:57.803Z,3.83
2019-03-19T14:22:25.431Z,3.10
2019-03-19T14:24:54.047Z,3.33
2019-03-19T14:27:21.601Z,3.80
2019-03-19T14:29:51.537Z,3.08
2019-03-19T14:32:18.426Z,2.90
2019-03-19T14:34:46.129Z,2.92
2019-03-19T14:37:13.910Z,3.20
2019-03-19T14:39:42.101Z,2.90
2019-03-19T14:42:10.037Z,2.70
2019-03-19T14:44:37.529Z,3.10
2019-03-19T14:47:04.773Z,3.20
2019-03-19T14:49:32.951Z,3.45
2019-03-19T14:52:01.140Z,3.37
2019-03-19T14:54:28.890Z,3.20
2019-03-19T14:56:56.347Z,2.80
2019-03-19T14:59:26.101Z,2.75
2019-03-19T15:01:53.849Z,3.00
2019-03-19T15:04:22.206Z,3.05
2019-03-19T15:06:49.780Z,2.87
2019-03-19T15:09:19.017Z,2.90
2019-03-19T15:11:47.120Z,2.60
2019-03-19T15:14:14.873Z,2.77
2019-03-19T15:16:42.777Z,2.92
2019-03-19T15:19:10.859Z,2.65
2019-03-19T15:21:38.726Z,3.58
2019-03-19T15:24:06.793Z,2.10
2019-03-19T15:26:34.953Z,3.45
2019-03-19T15:29:03.646Z,3.58
2019-03-19T15:31:31.353Z,3.37
2019-03-19T15:33:59.972Z,3.87
2019-03-19T15:36:27.539Z,3.50
2019-03-19T15:38:55.405Z,3.55
2019-03-19T15:41:23.102Z,3.90
2019-03-19T15:43:51.316Z,3.10
2019-03-19T15:46:20.840Z,3.15
2019-03-19T15:48:48.058Z,3.30
2019-03-19T15:51:15.812Z,3.35
2019-03-19T15:53:44.267Z,3.30
2019-03-19T15:56:11.979Z,3.55
2019-03-19T15:58:40.226Z,3.02
2019-03-19T16:01:07.846Z,3.65
2019-03-19T16:03:35.331Z,3.27
2019-03-19T16:06:03.257Z,3.20
2019-03-19T16:08:30.910Z,3.27
2019-03-19T16:10:58.862Z,2.70
2019-03-19T16:13:26.147Z,2.75
2019-03-19T16:15:53.894Z,2.90
2019-03-19T16:18:21.575Z,2.70
2019-03-19T16:20:49.202Z,2.80
2019-03-19T16:23:17.682Z,3.52
2019-03-19T16:25:45.917Z,2.62
2019-03-19T16:28:13.514Z,2.50
2019-03-19T16:30:41.496Z,2.58
2019-03-19T16:33:09.444Z,3.25
2019-03-19T16:35:37.644Z,2.95
2019-03-19T16:38:05.688Z,2.35
2019-03-19T16:40:33.353Z,3.35
2019-03-19T16:43:01.169Z,3.05
2019-03-19T16:45:29.004Z,2.85
2019-03-19T16:47:56.571Z,2.50
2019-03-19T16:50:25.063Z,2.75
2019-03-19T16:52:52.511Z,2.90
2019-03-19T16:55:21.611Z,2.42
2019-03-19T16:57:49.496Z,2.37
2019-03-19T17:00:16.991Z,2.30
2019-03-19T17:02:44.558Z,2.10
2019-03-19T17:05:12.683Z,2.17
2019-03-19T17:07:39.890Z,2.50
2019-03-19T17:10:09.283Z,2.30
2019-03-19T17:12:36.850Z,2.72
2019-03-19T17:15:04.476Z,2.52
2019-03-19T17:17:32.060Z,2.45
2019-03-19T17:20:00.332Z,2.30
2019-03-19T17:22:28.367Z,2.90
2019-03-19T17:24:55.550Z,2.95
2019-03-19T17:27:23.466Z,2.72
2019-03-19T17:29:51.715Z,2.45
2019-03-19T17:32:19.820Z,7.70
2019-03-19T17:34:47.877Z,3.85
2019-03-19T17:37:15.459Z,2.77
2019-03-19T17:39:43.206Z,2.33
2019-03-19T17:42:11.347Z,3.12
2019-03-19T17:44:39.665Z,2.77
2019-03-19T17:47:08.724Z,2.60
2019-03-19T17:49:36.944Z,2.90
2019-03-19T17:52:04.771Z,2.58
2019-03-19T17:54:32.659Z,2.67
2019-03-19T17:56:59.918Z,2.25
2019-03-19T17:59:27.811Z,2.47
2019-03-19T18:01:57.179Z,3.20
2019-03-19T18:04:25.551Z,2.35
2019-03-19T18:06:54.048Z,3.00
2019-03-19T18:09:21.247Z,2.90
2019-03-19T18:11:49.169Z,2.87
2019-03-19T18:14:17.215Z,3.12
2019-03-19T18:16:45.788Z,3.15
2019-03-19T18:19:14.082Z,3.37
2019-03-19T18:21:42.606Z,3.60
2019-03-19T18:24:10.717Z,4.10
2019-03-19T18:26:38.175Z,4.30
2019-03-19T18:29:06.175Z,3.98
2019-03-19T18:31:33.691Z,5.53
2019-03-19T18:34:09.945Z,4.40
2019-03-19T18:36:31.353Z,4.12
2019-03-19T18:38:59.851Z,4.35
2019-03-19T18:41:27.378Z,4.15
2019-03-19T18:43:56.435Z,4.30
2019-03-19T18:46:24.059Z,4.50
2019-03-19T18:48:51.555Z,4.95
2019-03-19T18:51:19.170Z,4.80
2019-03-19T18:53:46.817Z,4.37
2019-03-19T18:56:14.518Z,4.35
2019-03-19T18:58:42.246Z,3.80
2019-03-19T19:01:10.228Z,3.33
2019-03-19T19:03:40.357Z,3.35
2019-03-19T19:06:08.779Z,4.05
2019-03-19T19:08:38.337Z,3.80
2019-03-19T19:11:06.610Z,4.15
2019-03-19T19:13:34.905Z,4.60
2019-03-19T19:16:03.493Z,4.67
2019-03-19T19:18:33.033Z,4.08
2019-03-19T19:21:01.969Z,4.78
2019-03-19T19:23:29.413Z,4.50
2019-03-19T19:25:57.032Z,4.12
2019-03-19T19:28:25.082Z,4.10
2019-03-19T19:30:52.813Z,4.78
2019-03-19T19:33:20.035Z,4.70
2019-03-19T19:35:47.922Z,5.22
2019-03-19T19:38:15.599Z,4.60
2019-03-19T19:40:43.151Z,4.25
2019-03-19T19:43:11.355Z,4.12
2019-03-19T19:45:39.741Z,4.58
2019-03-19T19:48:07.258Z,4.25
2019-03-19T19:50:35.488Z,4.50
2019-03-19T19:53:03.645Z,4.22
2019-03-19T19:55:32.260Z,3.65
2019-03-19T19:57:59.876Z,3.60
2019-03-19T20:00:27.483Z,3.77
2019-03-19T20:02:55.074Z,3.67
2019-03-19T20:05:24.076Z,3.75
2019-03-19T20:07:52.074Z,3.85
2019-03-19T20:10:19.383Z,3.90
2019-03-19T20:12:48.414Z,3.80
2019-03-19T20:15:17.080Z,3.90
2019-03-19T20:17:44.870Z,3.60
2019-03-19T20:20:13.962Z,3.60
2019-03-19T20:22:41.611Z,3.70
2019-03-19T20:25:10.656Z,3.60
2019-03-19T20:27:38.889Z,4.00
2019-03-19T20:30:09.903Z,4.00
2019-03-19T20:32:37.221Z,4.25
2019-03-19T20:35:07.153Z,3.35
2019-03-19T20:37:36.333Z,3.85
2019-03-19T20:40:04.858Z,3.70
2019-03-19T20:42:32.846Z,3.50
2019-03-19T20:45:00.832Z,3.77
2019-03-19T20:47:28.455Z,3.52
2019-03-19T20:49:57.542Z,3.92
2019-03-19T20:52:24.823Z,4.72
2019-03-19T20:54:53.215Z,4.20
2019-03-19T20:57:22.617Z,5.12
2019-03-19T20:59:50.584Z,6.67
2019-03-19T21:02:18.483Z,7.00
2019-03-19T21:04:46.086Z,4.53
2019-03-19T21:07:14.070Z,4.72
2019-03-19T21:09:42.695Z,4.90
2019-03-19T21:12:18.802Z,4.10
2019-03-19T21:14:53.457Z,3.83
2019-03-19T21:17:21.081Z,4.12
2019-03-19T21:19:48.901Z,4.33
2019-03-19T21:22:17.402Z,4.20
2019-03-19T21:24:58.079Z,4.45
2019-03-19T21:27:44.024Z,3.60
2019-03-19T21:30:37.011Z,3.65
2019-03-19T21:33:32.656Z,3.65
2019-03-19T21:36:23.199Z,3.20
2019-03-19T21:39:13.546Z,3.27
2019-03-19T21:42:01.026Z,3.52
2019-03-19T21:44:52.542Z,3.30
2019-03-19T21:47:43.370Z,3.22
2019-03-19T21:50:33.348Z,3.30
2019-03-19T21:53:29.700Z,3.33
2019-03-19T21:56:26.392Z,3.35
2019-03-19T21:59:16.374Z,3.33
2019-03-19T22:02:00.723Z,4.17
2019-03-19T22:04:42.852Z,3.87
2019-03-19T22:07:28.355Z,4.22
2019-03-19T22:10:21.138Z,3.33
2019-03-19T22:13:04.042Z,3.52
2019-03-19T22:15:39.881Z,3.47
2019-03-19T22:18:14.961Z,3.60
2019-03-19T22:20:43.263Z,3.52
2019-03-19T22:23:11.513Z,3.87
2019-03-19T22:25:39.499Z,4.20
2019-03-19T22:28:08.044Z,3.80
2019-03-19T22:30:35.907Z,5.50
2019-03-19T22:33:03.519Z,4.85
2019-03-19T22:35:31.123Z,4.83
2019-03-19T22:37:59.116Z,5.25
2019-03-19T22:40:29.235Z,4.95
2019-03-19T22:42:57.072Z,5.37
2019-03-19T22:45:27.110Z,5.70
2019-03-19T22:47:55.395Z,5.62
2019-03-19T22:50:22.950Z,5.05
2019-03-19T22:52:51.504Z,5.67
2019-03-19T22:55:28.447Z,5.22
2019-03-19T22:57:49.857Z,5.55
2019-03-19T23:00:31.575Z,6.40
2019-03-19T23:02:59.496Z,6.12
2019-03-19T23:05:27.632Z,5.80
2019-03-19T23:07:55.527Z,5.03
2019-03-19T23:10:23.097Z,6.25
2019-03-19T23:12:50.981Z,10.78
2019-03-19T23:15:19.290Z,9.63
2019-03-19T23:17:46.670Z,8.38
2019-03-19T23:20:14.273Z,7.42
2019-03-19T23:22:42.513Z,7.25
2019-03-19T23:25:10.489Z,7.15
2019-03-19T23:27:38.171Z,7.62
2019-03-19T23:30:06.391Z,5.58
2019-03-19T23:32:34.252Z,6.05
2019-03-19T23:35:01.945Z,6.60
2019-03-19T23:37:29.562Z,8.58
2019-03-19T23:39:57.266Z,10.58
2019-03-19T23:42:24.928Z,10.68
2019-03-19T23:44:53.008Z,10.60
2019-03-19T23:47:20.988Z,8.93
